createdAt,value
2023-05-24T00:00:38.800Z,8.87
2023-05-24T00:03:06.864Z,10.53
2023-05-24T00:05:37.370Z,8.87
2023-05-24T00:08:05.722Z,8.00
2023-05-24T00:10:34.333Z,8.50
2023-05-24T00:13:02.614Z,7.10
2023-05-24T00:15:31.042Z,6.93
2023-05-24T00:17:59.773Z,8.17
2023-05-24T00:20:27.732Z,7.73
2023-05-24T00:22:56.314Z,6.87
2023-05-24T00:25:24.237Z,8.80
2023-05-24T00:27:52.662Z,8.03
2023-05-24T00:30:20.949Z,8.57
2023-05-24T00:32:48.967Z,9.20
2023-05-24T00:35:17.327Z,6.60
2023-05-24T00:37:46.030Z,6.77
2023-05-24T00:40:14.063Z,8.97
2023-05-24T00:42:42.564Z,9.93
2023-05-24T00:45:11.360Z,5.67
2023-05-24T00:47:39.871Z,7.40
2023-05-24T00:50:09.648Z,8.83
2023-05-24T00:52:38.217Z,8.17
2023-05-24T00:55:06.723Z,8.00
2023-05-24T00:57:35.618Z,5.97
2023-05-24T01:00:05.823Z,6.23
2023-05-24T01:02:34.189Z,7.60
2023-05-24T01:05:03.396Z,9.43
2023-05-24T01:07:42.112Z,7.60
2023-05-24T01:10:28.819Z,6.90
2023-05-24T01:13:04.747Z,9.20
2023-05-24T01:15:53.226Z,8.70
2023-05-24T01:18:24.762Z,8.30
2023-05-24T01:20:57.163Z,9.43
2023-05-24T01:23:35.870Z,8.40
2023-05-24T01:26:14.021Z,6.57
2023-05-24T01:28:43.396Z,6.77
2023-05-24T01:33:40.247Z,6.87
2023-05-24T01:36:08.215Z,7.97
2023-05-24T01:38:36.789Z,8.27
2023-05-24T01:41:06.660Z,8.60
2023-05-24T01:43:36.615Z,8.57
2023-05-24T01:46:23.368Z,8.90
2023-05-24T01:48:56.295Z,7.47
2023-05-24T01:51:26.227Z,9.63
2023-05-24T01:53:55.496Z,6.23
2023-05-24T01:56:24.029Z,7.63
2023-05-24T01:58:53.529Z,10.30
2023-05-24T02:01:21.556Z,8.27
2023-05-24T02:03:51.588Z,10.07
2023-05-24T02:06:20.401Z,7.70
2023-05-24T02:08:48.314Z,7.63
2023-05-24T02:11:16.751Z,7.50
2023-05-24T02:13:45.098Z,9.43
2023-05-24T02:16:14.131Z,8.73
2023-05-24T02:18:43.666Z,8.93
2023-05-24T02:21:12.605Z,7.77
2023-05-24T02:23:41.182Z,8.67
2023-05-24T02:26:11.113Z,9.33
2023-05-24T02:28:39.083Z,11.00
2023-05-24T02:31:07.719Z,8.87
2023-05-24T02:33:38.053Z,9.00
2023-05-24T02:36:06.675Z,9.50
2023-05-24T02:38:35.291Z,9.13
2023-05-24T02:41:04.029Z,13.37
2023-05-24T02:43:31.974Z,10.93
2023-05-24T02:46:00.629Z,13.27
2023-05-24T02:48:29.080Z,11.10
2023-05-24T02:50:57.677Z,12.07
2023-05-24T02:53:26.046Z,8.83
2023-05-24T02:55:54.629Z,9.80
2023-05-24T02:58:23.517Z,11.33
2023-05-24T03:00:52.014Z,8.70
2023-05-24T03:03:20.558Z,10.20
2023-05-24T03:05:48.858Z,10.43
2023-05-24T03:08:16.805Z,11.03
2023-05-24T03:10:45.451Z,10.40
2023-05-24T03:13:13.775Z,14.20
2023-05-24T03:15:42.938Z,8.00
2023-05-24T03:18:11.445Z,9.47
2023-05-24T03:20:40.047Z,10.70
2023-05-24T03:23:09.728Z,9.30
2023-05-24T03:25:37.923Z,10.50
2023-05-24T03:28:05.785Z,12.67
2023-05-24T03:30:34.761Z,7.93
2023-05-24T03:33:03.282Z,8.03
2023-05-24T03:35:31.225Z,7.43
2023-05-24T03:37:59.608Z,6.20
2023-05-24T03:40:29.140Z,6.33
2023-05-24T03:42:57.416Z,8.70
2023-05-24T03:45:34.509Z,7.40
2023-05-24T03:47:55.252Z,7.07
2023-05-24T03:50:23.688Z,6.17
2023-05-24T03:52:52.462Z,6.67
2023-05-24T03:55:21.262Z,6.80
2023-05-24T03:57:49.647Z,6.90
2023-05-24T04:00:18.631Z,7.03
2023-05-24T04:02:46.612Z,6.03
2023-05-24T04:05:15.616Z,5.80
2023-05-24T04:07:45.612Z,7.27
2023-05-24T04:10:13.592Z,6.57
2023-05-24T04:12:42.250Z,6.10
2023-05-24T04:15:12.923Z,12.33
2023-05-24T04:17:42.553Z,7.33
2023-05-24T04:20:11.263Z,9.07
2023-05-24T04:22:39.494Z,8.53
2023-05-24T04:25:08.075Z,7.73
2023-05-24T04:27:37.028Z,11.57
2023-05-24T04:35:00.232Z,8.33
2023-05-24T04:37:29.369Z,10.30
2023-05-24T04:39:57.377Z,10.83
2023-05-24T04:42:26.203Z,10.27
2023-05-24T04:44:54.676Z,12.10
2023-05-24T04:47:23.210Z,7.33
2023-05-24T04:49:52.238Z,8.03
2023-05-24T04:52:21.040Z,7.17
2023-05-24T04:54:50.432Z,9.43
2023-05-24T04:57:18.431Z,8.60
2023-05-24T04:59:46.308Z,11.40
2023-05-24T05:02:14.268Z,9.23
2023-05-24T05:04:42.300Z,9.67
2023-05-24T05:07:11.233Z,8.20
2023-05-24T05:09:39.695Z,9.00
2023-05-24T05:12:07.685Z,7.80
2023-05-24T05:14:36.144Z,9.57
2023-05-24T05:17:04.530Z,7.77
2023-05-24T05:19:33.029Z,8.37
2023-05-24T05:24:28.095Z,9.33
2023-05-24T05:26:55.989Z,7.67
2023-05-24T05:29:24.717Z,8.67
2023-05-24T05:31:52.755Z,8.63
2023-05-24T05:34:21.749Z,11.30
2023-05-24T05:36:49.627Z,14.47
2023-05-24T05:39:18.403Z,11.33
2023-05-24T05:44:15.063Z,9.68
2023-05-24T05:46:45.379Z,12.67
2023-05-24T05:49:15.688Z,10.07
2023-05-24T05:51:44.233Z,9.43
2023-05-24T05:54:13.782Z,9.07
2023-05-24T05:56:47.266Z,9.00
2023-05-24T05:59:16.586Z,9.23
2023-05-24T06:01:46.873Z,12.00
2023-05-24T06:04:15.144Z,11.13
2023-05-24T06:06:45.898Z,11.53
2023-05-24T06:09:14.589Z,10.80
2023-05-24T06:14:14.026Z,9.05
2023-05-24T06:16:42.640Z,11.60
2023-05-24T06:19:11.118Z,8.43
2023-05-24T06:21:41.565Z,12.30
2023-05-24T06:24:10.422Z,13.97
2023-05-24T06:26:39.013Z,12.70
2023-05-24T06:29:07.489Z,12.90
2023-05-24T06:31:35.565Z,10.60
2023-05-24T06:34:04.608Z,13.73
2023-05-24T06:36:35.256Z,11.70
2023-05-24T06:39:04.650Z,13.13
2023-05-24T06:41:32.658Z,10.73
2023-05-24T06:44:01.644Z,11.17
2023-05-24T06:46:30.424Z,9.60
2023-05-24T06:51:26.066Z,10.75
2023-05-24T06:53:54.760Z,10.07
2023-05-24T06:58:50.601Z,13.85
2023-05-24T07:01:19.297Z,10.77
2023-05-24T07:03:48.300Z,8.57
2023-05-24T07:06:17.170Z,10.93
2023-05-24T07:08:45.890Z,9.80
2023-05-24T07:11:13.931Z,14.27
2023-05-24T07:13:42.530Z,14.97
2023-05-24T07:16:12.414Z,10.23
2023-05-24T07:18:41.899Z,9.13
2023-05-24T07:21:10.719Z,13.57
2023-05-24T07:23:39.265Z,12.60
2023-05-24T07:26:07.975Z,13.27
2023-05-24T07:28:38.134Z,10.37
2023-05-24T07:31:10.472Z,10.00
2023-05-24T07:33:39.330Z,11.27
2023-05-24T07:36:08.196Z,11.10
2023-05-24T07:38:36.247Z,11.90
2023-05-24T07:41:05.423Z,9.70
2023-05-24T07:43:33.925Z,13.73
2023-05-24T07:46:02.570Z,10.90
2023-05-24T07:48:30.548Z,11.20
2023-05-24T07:50:59.155Z,11.53
2023-05-24T07:53:27.981Z,11.70
2023-05-24T07:55:56.528Z,13.10
2023-05-24T07:58:25.001Z,10.67
2023-05-24T08:00:53.006Z,8.03
2023-05-24T08:03:21.384Z,13.20
2023-05-24T08:05:49.417Z,9.80
2023-05-24T08:08:17.927Z,7.77
2023-05-24T08:10:46.010Z,7.60
2023-05-24T08:13:13.938Z,7.97
2023-05-24T08:15:43.039Z,7.83
2023-05-24T08:18:11.403Z,8.83
2023-05-24T08:20:41.317Z,6.97
2023-05-24T08:23:10.153Z,12.17
2023-05-24T08:25:38.152Z,9.60
2023-05-24T08:28:06.589Z,8.63
2023-05-24T08:30:35.886Z,8.67
2023-05-24T08:33:04.643Z,6.20
2023-05-24T08:38:00.359Z,7.08
2023-05-24T08:40:28.909Z,7.07
2023-05-24T08:42:58.675Z,4.57
2023-05-24T08:45:27.706Z,5.83
2023-05-24T08:47:57.030Z,4.60
2023-05-24T08:50:25.976Z,4.43
2023-05-24T08:55:22.369Z,4.70
2023-05-24T08:57:52.021Z,4.87
2023-05-24T09:00:20.180Z,5.03
2023-05-24T09:02:48.416Z,4.20
2023-05-24T09:05:20.267Z,4.43
2023-05-24T09:07:49.732Z,4.97
2023-05-24T09:10:19.662Z,4.13
2023-05-24T09:12:49.905Z,3.97
2023-05-24T09:15:17.938Z,5.80
2023-05-24T09:17:46.677Z,5.87
2023-05-24T09:20:15.262Z,4.70
2023-05-24T09:22:45.140Z,4.53
2023-05-24T09:25:15.836Z,5.00
2023-05-24T09:27:48.248Z,5.93
2023-05-24T09:30:17.061Z,4.37
2023-05-24T09:32:53.172Z,5.20
2023-05-24T09:35:21.798Z,3.57
2023-05-24T09:37:50.393Z,4.67
2023-05-24T09:40:20.770Z,4.63
2023-05-24T09:42:50.929Z,4.60
2023-05-24T09:45:19.418Z,3.47
2023-05-24T09:47:47.957Z,6.37
2023-05-24T09:50:18.223Z,6.33
2023-05-24T09:52:46.995Z,5.40
2023-05-24T09:55:19.352Z,3.77
2023-05-24T09:57:55.364Z,6.13
2023-05-24T10:00:24.619Z,4.77
2023-05-24T10:03:03.486Z,3.10
2023-05-24T10:05:32.219Z,3.27
2023-05-24T10:08:01.267Z,3.07
2023-05-24T10:10:34.335Z,6.03
2023-05-24T10:13:03.852Z,3.17
2023-05-24T10:15:32.218Z,2.93
2023-05-24T10:18:02.500Z,4.23
2023-05-24T10:20:31.175Z,4.27
2023-05-24T10:23:02.316Z,4.87
2023-05-24T10:25:30.958Z,3.47
2023-05-24T10:27:59.781Z,4.47
2023-05-24T10:32:57.304Z,3.77
2023-05-24T10:35:27.966Z,3.90
2023-05-24T10:37:58.179Z,4.20
2023-05-24T10:40:27.009Z,3.70
2023-05-24T10:42:55.656Z,4.43
2023-05-24T10:45:25.889Z,3.90
2023-05-24T10:47:55.246Z,3.80
2023-05-24T10:50:24.099Z,3.83
2023-05-24T10:55:22.745Z,5.12
2023-05-24T10:57:51.308Z,5.90
2023-05-24T11:03:05.540Z,5.90
2023-05-24T11:05:37.974Z,4.50
2023-05-24T11:08:08.409Z,3.83
2023-05-24T11:10:36.402Z,4.97
2023-05-24T11:13:04.708Z,2.67
2023-05-24T11:15:33.561Z,5.13
2023-05-24T11:18:15.262Z,6.17
2023-05-24T11:20:45.770Z,5.00
2023-05-24T11:23:16.176Z,3.53
2023-05-24T11:25:44.671Z,9.97
2023-05-24T11:28:13.521Z,3.50
2023-05-24T11:30:45.345Z,3.33
2023-05-24T11:33:19.071Z,3.37
2023-05-24T11:35:48.344Z,4.43
2023-05-24T11:38:17.560Z,3.93
2023-05-24T11:40:47.435Z,4.37
2023-05-24T11:43:16.952Z,6.10
2023-05-24T11:45:46.009Z,4.60
2023-05-24T11:48:14.874Z,3.93
2023-05-24T11:53:14.604Z,4.63
2023-05-24T11:55:43.393Z,5.60
2023-05-24T11:58:12.996Z,4.33
2023-05-24T12:00:41.881Z,5.03
2023-05-24T12:03:11.295Z,3.93
2023-05-24T12:05:39.503Z,5.87
2023-05-24T12:08:12.400Z,4.03
2023-05-24T12:10:41.456Z,6.10
2023-05-24T12:13:23.874Z,4.97
2023-05-24T12:15:55.835Z,4.87
2023-05-24T12:18:25.214Z,3.77
2023-05-24T12:20:54.184Z,4.33
2023-05-24T12:23:24.300Z,3.43
2023-05-24T12:25:52.896Z,3.13
2023-05-24T12:28:23.547Z,4.63
2023-05-24T12:30:52.105Z,5.83
2023-05-24T12:33:21.381Z,6.13
2023-05-24T12:35:50.728Z,3.53
2023-05-24T12:38:22.297Z,6.97
2023-05-24T12:41:03.877Z,4.67
2023-05-24T12:43:21.504Z,8.60
2023-05-24T12:45:50.339Z,4.83
2023-05-24T12:48:20.126Z,7.80
2023-05-24T12:50:48.762Z,4.73
2023-05-24T12:53:17.243Z,5.00
2023-05-24T12:55:45.415Z,4.83
2023-05-24T12:58:14.904Z,4.03
2023-05-24T13:00:45.233Z,4.30
2023-05-24T13:03:13.810Z,6.00
2023-05-24T13:05:42.955Z,5.07
2023-05-24T13:08:11.624Z,3.20
2023-05-24T13:10:40.568Z,4.07
2023-05-24T13:13:09.427Z,6.00
2023-05-24T13:15:38.912Z,3.13
2023-05-24T13:18:07.550Z,4.93
2023-05-24T13:20:36.109Z,6.13
2023-05-24T13:23:04.767Z,4.33
2023-05-24T13:25:33.352Z,4.40
2023-05-24T13:28:01.320Z,2.97
2023-05-24T13:30:29.801Z,3.90
2023-05-24T13:32:59.941Z,7.20
2023-05-24T13:35:28.705Z,3.57
2023-05-24T13:37:58.180Z,4.90
2023-05-24T13:40:26.706Z,3.70
2023-05-24T13:42:55.865Z,3.60
2023-05-24T13:45:23.850Z,5.70
2023-05-24T13:47:53.520Z,4.83
2023-05-24T13:50:23.898Z,7.20
2023-05-24T13:52:53.195Z,7.37
2023-05-24T13:55:21.880Z,6.43
2023-05-24T13:57:52.277Z,4.33
2023-05-24T14:00:20.919Z,3.83
2023-05-24T14:02:49.711Z,5.70
2023-05-24T14:05:27.409Z,8.27
2023-05-24T14:07:48.260Z,7.77
2023-05-24T14:10:18.666Z,6.90
2023-05-24T14:12:56.123Z,4.63
2023-05-24T14:15:16.996Z,5.20
2023-05-24T14:17:45.331Z,6.93
2023-05-24T14:20:14.205Z,6.07
2023-05-24T14:25:11.130Z,4.65
2023-05-24T14:27:41.588Z,5.03
2023-05-24T14:30:10.697Z,4.67
2023-05-24T14:32:38.989Z,5.07
2023-05-24T14:35:08.138Z,4.00
2023-05-24T14:37:36.127Z,3.67
2023-05-24T14:40:06.110Z,6.53
2023-05-24T14:42:34.960Z,6.30
2023-05-24T14:45:04.519Z,5.70
2023-05-24T14:47:33.185Z,5.17
2023-05-24T14:50:01.837Z,4.80
2023-05-24T14:52:31.919Z,5.23
2023-05-24T14:55:00.599Z,7.77
2023-05-24T14:57:28.783Z,5.20
2023-05-24T14:59:57.466Z,4.80
2023-05-24T15:02:26.329Z,6.93
2023-05-24T15:04:55.186Z,5.00
2023-05-24T15:07:23.995Z,9.07
2023-05-24T15:09:52.380Z,6.83
2023-05-24T15:12:21.023Z,4.10
2023-05-24T15:14:49.501Z,3.80
2023-05-24T15:17:20.977Z,3.30
2023-05-24T15:19:48.385Z,4.17
2023-05-24T15:22:16.679Z,3.77
2023-05-24T15:24:45.169Z,3.87
2023-05-24T15:27:13.834Z,4.67
2023-05-24T15:29:42.424Z,2.87
2023-05-24T15:32:11.005Z,3.77
2023-05-24T15:34:39.791Z,4.33
2023-05-24T15:37:08.293Z,4.33
2023-05-24T15:39:37.008Z,4.60
2023-05-24T15:42:05.873Z,5.23
2023-05-24T15:44:33.882Z,5.47
2023-05-24T15:47:02.455Z,3.53
2023-05-24T15:49:31.338Z,3.80
2023-05-24T15:54:28.147Z,5.10
2023-05-24T15:56:56.724Z,3.77
2023-05-24T15:59:25.691Z,4.63
2023-05-24T16:04:21.661Z,5.40
2023-05-24T16:06:50.036Z,3.97
2023-05-24T16:09:18.617Z,5.47
2023-05-24T16:11:47.592Z,5.17
2023-05-24T16:14:16.699Z,3.40
2023-05-24T16:19:12.561Z,6.35
2023-05-24T16:21:41.149Z,3.60
2023-05-24T16:24:12.275Z,5.17
2023-05-24T16:26:40.970Z,3.87
2023-05-24T16:29:10.549Z,5.20
2023-05-24T16:31:39.182Z,5.27
2023-05-24T16:34:07.750Z,6.53
2023-05-24T16:36:37.590Z,5.80
2023-05-24T16:39:05.931Z,6.87
2023-05-24T16:41:35.542Z,4.87
2023-05-24T16:44:05.480Z,6.97
2023-05-24T16:46:34.365Z,5.43
2023-05-24T16:51:30.295Z,5.62
2023-05-24T16:53:58.768Z,4.93
2023-05-24T16:56:27.992Z,4.80
2023-05-24T16:58:56.913Z,7.30
2023-05-24T17:03:53.077Z,5.47
2023-05-24T17:06:21.130Z,4.87
2023-05-24T17:08:49.536Z,7.27
2023-05-24T17:11:19.823Z,9.53
2023-05-24T17:13:49.328Z,4.47
2023-05-24T17:16:18.116Z,7.30
2023-05-24T17:18:46.875Z,8.33
2023-05-24T17:21:15.590Z,5.93
2023-05-24T17:23:44.130Z,4.37
2023-05-24T17:26:14.254Z,5.97
2023-05-24T17:28:44.368Z,5.77
2023-05-24T17:31:16.375Z,3.60
2023-05-24T17:33:45.739Z,5.10
2023-05-24T17:36:14.331Z,4.50
2023-05-24T17:38:42.826Z,7.30
2023-05-24T17:41:11.517Z,7.00
2023-05-24T17:43:41.304Z,5.17
2023-05-24T17:46:10.558Z,4.60
2023-05-24T17:48:39.185Z,3.93
2023-05-24T17:51:08.758Z,5.67
2023-05-24T17:53:38.706Z,5.77
2023-05-24T17:56:06.836Z,5.37
2023-05-24T17:58:38.537Z,7.07
2023-05-24T18:01:07.912Z,4.80
2023-05-24T18:03:41.187Z,9.37
2023-05-24T18:06:09.593Z,7.23
2023-05-24T18:08:38.961Z,5.33
2023-05-24T18:11:12.105Z,9.20
2023-05-24T18:13:42.326Z,5.27
2023-05-24T18:16:11.589Z,6.37
2023-05-24T18:18:40.012Z,5.93
2023-05-24T18:21:10.115Z,7.40
2023-05-24T18:23:38.815Z,9.00
2023-05-24T18:26:10.733Z,11.50
2023-05-24T18:28:39.483Z,10.53
2023-05-24T18:31:10.088Z,8.43
2023-05-24T18:33:38.999Z,12.60
2023-05-24T18:38:35.550Z,9.13
2023-05-24T18:41:06.374Z,9.73
2023-05-24T18:43:35.475Z,12.10
2023-05-24T18:46:03.878Z,9.17
2023-05-24T18:48:32.476Z,11.83
2023-05-24T18:51:00.954Z,10.40
2023-05-24T18:53:29.616Z,9.57
2023-05-24T18:55:57.976Z,12.77
2023-05-24T18:58:26.684Z,21.13
2023-05-24T19:00:55.307Z,17.70
2023-05-24T19:03:23.878Z,13.03
2023-05-24T19:05:51.898Z,13.00
2023-05-24T19:08:20.204Z,12.87
2023-05-24T19:10:48.076Z,12.90
2023-05-24T19:13:16.050Z,10.43
2023-05-24T19:15:44.858Z,13.17
2023-05-24T19:18:13.502Z,12.23
2023-05-24T19:20:41.768Z,11.40
2023-05-24T19:23:10.687Z,12.17
2023-05-24T19:25:42.196Z,13.70
2023-05-24T19:28:11.956Z,22.53
2023-05-24T19:30:40.524Z,18.87
2023-05-24T19:33:08.923Z,13.00
2023-05-24T19:35:36.996Z,15.37
2023-05-24T19:38:05.552Z,15.67
2023-05-24T19:40:34.109Z,15.70
2023-05-24T19:43:02.164Z,13.87
2023-05-24T19:45:30.891Z,13.73
2023-05-24T19:47:59.748Z,23.70
2023-05-24T19:50:31.003Z,11.37
2023-05-24T19:52:58.479Z,12.30
2023-05-24T19:55:27.271Z,14.77
2023-05-24T19:57:55.882Z,23.43
2023-05-24T20:00:24.457Z,11.37
2023-05-24T20:02:52.555Z,10.57
2023-05-24T20:05:20.926Z,16.07
2023-05-24T20:07:49.415Z,10.13
2023-05-24T20:10:17.860Z,8.70
2023-05-24T20:12:46.068Z,7.63
2023-05-24T20:15:15.940Z,8.00
2023-05-24T20:17:45.584Z,9.63
2023-05-24T20:20:14.504Z,8.60
2023-05-24T20:22:42.519Z,7.87
2023-05-24T20:25:11.109Z,8.13
2023-05-24T20:27:41.755Z,6.53
2023-05-24T20:30:10.397Z,8.57
2023-05-24T20:32:39.038Z,6.77
2023-05-24T20:35:08.040Z,6.73
2023-05-24T20:37:37.203Z,6.63
2023-05-24T20:40:06.369Z,5.43
2023-05-24T20:42:35.089Z,5.73
2023-05-24T20:45:04.066Z,5.07
2023-05-24T20:47:33.377Z,4.80
2023-05-24T20:50:02.190Z,8.83
2023-05-24T20:52:31.159Z,4.97
2023-05-24T20:54:59.841Z,6.03
2023-05-24T20:57:28.433Z,5.23
2023-05-24T20:59:57.045Z,5.80
2023-05-24T21:02:28.149Z,4.97
2023-05-24T21:04:57.460Z,5.67
2023-05-24T21:07:26.814Z,5.10
2023-05-24T21:09:57.238Z,6.27
2023-05-24T21:12:25.271Z,4.20
2023-05-24T21:14:55.584Z,5.83
2023-05-24T21:17:25.439Z,6.63
2023-05-24T21:19:54.972Z,5.80
2023-05-24T21:22:23.013Z,6.10
2023-05-24T21:24:51.977Z,5.10
2023-05-24T21:27:20.957Z,5.40
2023-05-24T21:29:49.748Z,13.37
2023-05-24T21:32:20.055Z,7.07
2023-05-24T21:34:48.676Z,5.57
2023-05-24T21:37:17.861Z,5.97
2023-05-24T21:39:46.887Z,7.10
2023-05-24T21:42:15.564Z,22.07
2023-05-24T21:44:44.645Z,41.23
2023-05-24T21:47:12.959Z,57.73
2023-05-24T21:49:41.032Z,40.33
2023-05-24T21:52:08.952Z,71.90
2023-05-24T21:54:37.336Z,79.93
2023-05-24T21:57:07.314Z,85.87
2023-05-24T21:59:35.918Z,75.13
2023-05-24T22:02:04.413Z,51.23
2023-05-24T22:04:32.571Z,35.27
2023-05-24T22:07:00.882Z,29.17
2023-05-24T22:09:29.550Z,19.67
2023-05-24T22:11:57.531Z,15.97
2023-05-24T22:14:26.002Z,14.17
2023-05-24T22:16:54.563Z,16.90
2023-05-24T22:19:38.383Z,17.13
2023-05-24T22:21:56.743Z,19.97
2023-05-24T22:24:25.850Z,50.10
2023-05-24T22:26:54.439Z,63.17
2023-05-24T22:29:23.143Z,53.10
2023-05-24T22:31:51.555Z,53.40
2023-05-24T22:34:29.923Z,29.17
2023-05-24T22:36:58.162Z,25.93
2023-05-24T22:39:26.791Z,21.67
2023-05-24T22:41:54.778Z,26.17
2023-05-24T22:44:23.238Z,26.03
2023-05-24T22:46:53.273Z,21.70
2023-05-24T22:49:22.453Z,19.77
2023-05-24T22:51:51.097Z,21.13
2023-05-24T22:54:19.599Z,16.93
2023-05-24T22:56:47.697Z,16.10
2023-05-24T22:59:16.162Z,16.87
2023-05-24T23:01:45.426Z,21.63
2023-05-24T23:06:45.777Z,20.05
2023-05-24T23:09:14.102Z,19.10
2023-05-24T23:11:43.410Z,18.40
2023-05-24T23:14:11.984Z,18.30
2023-05-24T23:16:44.237Z,14.30
2023-05-24T23:19:13.573Z,12.97
2023-05-24T23:21:42.190Z,13.40
2023-05-24T23:24:16.492Z,10.60
2023-05-24T23:26:45.140Z,11.97
2023-05-24T23:29:13.586Z,10.33
2023-05-24T23:31:42.494Z,7.77
2023-05-24T23:34:10.998Z,8.60
2023-05-24T23:36:39.567Z,8.93
2023-05-24T23:39:10.317Z,10.07
2023-05-24T23:41:38.164Z,11.00
2023-05-24T23:44:07.056Z,12.83
2023-05-24T23:46:36.236Z,8.23
2023-05-24T23:49:05.162Z,11.00
2023-05-24T23:51:36.424Z,7.13
2023-05-24T23:54:04.972Z,8.60
2023-05-24T23:56:33.576Z,9.33
2023-05-24T23:59:02.636Z,8.03
